createdAt,value
2017-12-05T00:00:42.778Z,2.20
2017-12-05T00:03:11.017Z,2.20
2017-12-05T00:05:39.301Z,2.20
2017-12-05T00:08:07.526Z,2.30
2017-12-05T00:10:35.783Z,2.30
2017-12-05T00:13:04.101Z,2.30
2017-12-05T00:15:32.376Z,2.30
2017-12-05T00:18:00.598Z,2.30
2017-12-05T00:20:28.920Z,2.30
2017-12-05T00:22:57.218Z,2.30
2017-12-05T00:25:25.467Z,2.30
2017-12-05T00:27:54.530Z,2.40
2017-12-05T00:30:22.800Z,2.40
2017-12-05T00:32:51.077Z,2.40
2017-12-05T00:35:19.453Z,2.40
2017-12-05T00:37:47.686Z,2.40
2017-12-05T00:40:15.971Z,2.40
2017-12-05T00:42:44.310Z,2.40
2017-12-05T00:45:13.323Z,2.40
2017-12-05T00:47:41.554Z,2.40
2017-12-05T00:50:09.916Z,2.40
2017-12-05T00:52:38.142Z,2.40
2017-12-05T00:55:07.163Z,2.40
2017-12-05T00:57:36.218Z,2.40
2017-12-05T01:00:05.204Z,2.40
2017-12-05T01:02:33.426Z,2.40
2017-12-05T01:05:01.715Z,2.40
2017-12-05T01:07:29.991Z,2.40
2017-12-05T01:09:58.208Z,2.40
2017-12-05T01:12:26.531Z,2.40
2017-12-05T01:14:54.767Z,2.30
2017-12-05T01:17:23.813Z,2.30
2017-12-05T01:19:52.128Z,2.30
2017-12-05T01:22:21.146Z,2.40
2017-12-05T01:24:49.393Z,2.40
2017-12-05T01:27:17.719Z,2.30
2017-12-05T01:29:45.934Z,2.30
2017-12-05T01:32:14.158Z,2.30
2017-12-05T01:34:42.544Z,2.40
2017-12-05T01:37:11.117Z,2.40
2017-12-05T01:39:39.354Z,2.40
2017-12-05T01:42:07.633Z,2.40
2017-12-05T01:44:35.880Z,2.40
2017-12-05T01:47:04.124Z,2.40
2017-12-05T01:49:32.456Z,2.40
2017-12-05T01:52:00.692Z,2.40
2017-12-05T01:54:28.952Z,2.40
2017-12-05T01:56:57.253Z,2.40
2017-12-05T01:59:25.578Z,2.40
2017-12-05T02:01:53.819Z,2.40
2017-12-05T02:04:22.131Z,2.40
2017-12-05T02:06:50.392Z,2.40
2017-12-05T02:09:19.526Z,2.40
2017-12-05T02:11:47.838Z,2.40
2017-12-05T02:14:16.086Z,2.40
2017-12-05T02:16:44.342Z,2.50
2017-12-05T02:19:12.639Z,2.50
2017-12-05T02:21:41.650Z,2.50
2017-12-05T02:24:09.929Z,2.50
2017-12-05T02:26:38.165Z,2.50
2017-12-05T02:29:06.436Z,2.50
2017-12-05T02:31:34.752Z,2.50
2017-12-05T02:34:03.011Z,2.50
2017-12-05T02:36:31.275Z,2.50
2017-12-05T02:38:59.570Z,2.50
2017-12-05T02:41:27.816Z,2.50
2017-12-05T02:43:56.062Z,2.50
2017-12-05T02:46:24.389Z,2.50
2017-12-05T02:48:52.661Z,2.50
2017-12-05T02:51:20.934Z,2.50
2017-12-05T02:53:49.332Z,2.50
2017-12-05T02:56:17.572Z,2.50
2017-12-05T02:58:45.826Z,2.50
2017-12-05T03:01:14.122Z,2.50
2017-12-05T03:03:42.354Z,2.50
2017-12-05T03:06:10.585Z,2.50
2017-12-05T03:08:38.890Z,2.60
2017-12-05T03:11:07.121Z,2.60
2017-12-05T03:13:35.349Z,2.50
2017-12-05T03:16:03.729Z,2.50
2017-12-05T03:18:31.996Z,2.60
2017-12-05T03:21:00.243Z,2.60
2017-12-05T03:23:28.555Z,2.60
2017-12-05T03:25:56.793Z,2.60
2017-12-05T03:28:25.021Z,2.60
2017-12-05T03:30:53.372Z,2.60
2017-12-05T03:33:21.644Z,2.60
2017-12-05T03:35:49.890Z,2.60
2017-12-05T03:38:18.197Z,2.60
2017-12-05T03:40:47.133Z,2.60
2017-12-05T03:43:16.149Z,2.60
2017-12-05T03:45:44.438Z,2.60
2017-12-05T03:48:12.702Z,2.70
2017-12-05T03:50:41.033Z,2.60
2017-12-05T03:53:09.315Z,2.70
2017-12-05T03:55:38.344Z,2.70
2017-12-05T03:58:06.664Z,2.70
2017-12-05T04:00:34.940Z,2.70
2017-12-05T04:03:03.238Z,2.70
2017-12-05T04:05:32.321Z,2.80
2017-12-05T04:08:00.558Z,2.80
2017-12-05T04:10:28.802Z,2.70
2017-12-05T04:12:57.892Z,2.70
2017-12-05T04:15:26.930Z,2.70
2017-12-05T04:17:55.168Z,2.70
2017-12-05T04:20:23.499Z,2.70
2017-12-05T04:22:51.737Z,2.70
2017-12-05T04:25:19.987Z,2.80
2017-12-05T04:27:49.012Z,2.70
2017-12-05T12:47:57.331Z,6.00
2017-12-05T12:50:25.612Z,6.00
2017-12-05T12:52:53.854Z,6.00
2017-12-05T12:55:22.253Z,6.10
2017-12-05T12:57:50.477Z,6.10
2017-12-05T13:00:18.709Z,6.10
2017-12-05T13:02:47.009Z,6.10
2017-12-05T13:05:15.315Z,6.10
2017-12-05T13:07:43.569Z,6.10
2017-12-05T13:10:11.875Z,6.10
2017-12-05T13:12:40.111Z,6.10
2017-12-05T13:15:08.409Z,6.10
2017-12-05T13:17:36.719Z,6.10
2017-12-05T13:20:04.978Z,6.10
2017-12-05T13:22:33.245Z,6.10
2017-12-05T13:25:01.555Z,6.10
2017-12-05T13:27:29.835Z,6.10
2017-12-05T13:29:58.113Z,6.10
2017-12-05T13:32:26.510Z,6.10
2017-12-05T13:34:54.783Z,6.10
2017-12-05T13:37:23.055Z,6.10
2017-12-05T13:39:51.396Z,6.10
2017-12-05T13:42:19.678Z,6.10
2017-12-05T13:44:47.966Z,6.10
2017-12-05T13:47:17.035Z,6.10
2017-12-05T13:49:45.270Z,6.10
2017-12-05T13:52:13.538Z,6.10
2017-12-05T13:54:41.941Z,6.10
2017-12-05T13:57:10.244Z,6.10
2017-12-05T13:59:38.503Z,6.10
2017-12-05T14:02:06.817Z,6.10
2017-12-05T14:04:35.823Z,6.10
2017-12-05T14:07:04.093Z,6.10
2017-12-05T14:09:32.375Z,6.10
2017-12-05T14:12:00.741Z,6.10
2017-12-05T14:14:29.738Z,6.10
2017-12-05T14:16:57.979Z,6.10
2017-12-05T14:19:26.317Z,6.10
2017-12-05T14:21:54.589Z,6.10
2017-12-05T14:24:22.901Z,6.10
2017-12-05T14:26:51.131Z,6.10
2017-12-05T14:29:19.605Z,6.10
2017-12-05T14:31:47.898Z,5.90
2017-12-05T14:34:16.227Z,5.90
2017-12-05T14:36:44.497Z,5.90
2017-12-05T14:39:12.807Z,5.90
2017-12-05T14:41:41.097Z,5.90
2017-12-05T14:44:09.358Z,5.90
2017-12-05T14:46:37.682Z,5.80
2017-12-05T14:49:05.981Z,5.80
2017-12-05T14:51:34.260Z,5.80
2017-12-05T14:54:02.610Z,5.80
2017-12-05T14:56:30.886Z,5.80
2017-12-05T14:58:59.134Z,5.80
2017-12-05T15:01:27.506Z,5.80
2017-12-05T15:03:55.772Z,5.80
2017-12-05T15:06:24.109Z,5.80
2017-12-05T15:08:52.443Z,5.80
2017-12-05T15:11:20.769Z,5.80
2017-12-05T15:13:49.130Z,5.80
2017-12-05T15:16:17.648Z,5.80
2017-12-05T15:18:46.012Z,5.70
2017-12-05T15:21:14.310Z,5.70
2017-12-05T15:23:42.673Z,5.80
2017-12-05T15:26:11.045Z,5.70
2017-12-05T15:28:40.069Z,5.70
2017-12-05T15:31:08.453Z,5.70
2017-12-05T15:33:36.705Z,5.70
2017-12-05T15:36:05.731Z,5.70
2017-12-05T15:38:34.098Z,5.70
2017-12-05T15:41:02.348Z,5.70
2017-12-05T15:43:31.344Z,5.70
2017-12-05T15:46:00.460Z,5.70
2017-12-05T15:48:28.694Z,5.70
2017-12-05T15:50:57.776Z,5.70
2017-12-05T15:53:26.192Z,5.70
2017-12-05T15:55:55.182Z,5.70
2017-12-05T15:58:23.466Z,5.60
2017-12-05T16:00:51.785Z,5.70
2017-12-05T16:03:20.789Z,5.70
2017-12-05T16:05:49.125Z,5.70
2017-12-05T16:08:17.421Z,5.60
2017-12-05T16:10:45.695Z,5.70
2017-12-05T16:13:13.945Z,5.70
2017-12-05T16:15:42.235Z,5.70
2017-12-05T16:18:10.535Z,5.70
2017-12-05T16:20:38.788Z,5.70
2017-12-05T16:23:07.149Z,5.70
2017-12-05T16:25:35.415Z,5.70
2017-12-05T16:28:03.712Z,5.70
2017-12-05T16:30:32.021Z,5.70
2017-12-05T16:33:00.296Z,5.70
2017-12-05T16:35:28.519Z,5.70
2017-12-05T16:37:57.701Z,5.80
2017-12-05T16:40:25.977Z,5.80
2017-12-05T16:42:55.096Z,5.80
2017-12-05T16:45:23.504Z,5.80
2017-12-05T16:47:51.857Z,5.80
2017-12-05T16:50:20.098Z,5.80
2017-12-05T16:52:48.458Z,5.80
2017-12-05T16:55:17.526Z,5.80
2017-12-05T16:57:45.773Z,5.80
2017-12-05T17:00:14.122Z,5.80
2017-12-05T17:02:42.384Z,5.80
2017-12-05T17:05:10.674Z,5.80
2017-12-05T17:07:39.755Z,5.80
2017-12-05T17:10:07.999Z,5.80
2017-12-05T17:12:36.268Z,5.80
2017-12-05T17:15:04.561Z,5.80
2017-12-05T17:17:32.897Z,5.80
2017-12-05T17:20:01.938Z,5.80
2017-12-05T17:22:30.330Z,5.80
2017-12-05T17:24:58.676Z,5.80
2017-12-05T17:27:28.408Z,5.80
2017-12-05T17:29:56.803Z,5.80
2017-12-05T17:32:25.160Z,5.80
2017-12-05T17:34:53.481Z,5.80
2017-12-05T17:37:21.799Z,5.80
2017-12-05T17:39:50.069Z,5.70
2017-12-05T17:42:19.120Z,5.70
2017-12-05T17:44:47.531Z,5.70
2017-12-05T17:47:15.863Z,5.60
2017-12-05T17:49:44.139Z,5.60
2017-12-05T17:52:12.449Z,5.60
2017-12-05T17:54:40.707Z,5.60
2017-12-05T17:57:09.062Z,5.60
2017-12-05T17:59:37.405Z,5.70
2017-12-05T18:02:05.659Z,5.70
2017-12-05T18:04:33.928Z,5.70
2017-12-05T18:07:02.228Z,5.80
2017-12-05T18:09:30.534Z,5.70
2017-12-05T18:11:58.803Z,5.80
2017-12-05T18:14:27.122Z,5.80
2017-12-05T18:16:56.190Z,5.80
2017-12-05T18:19:24.636Z,5.80
2017-12-05T18:21:53.101Z,5.80
2017-12-05T18:24:21.388Z,5.90
2017-12-05T18:26:49.668Z,5.80
2017-12-05T18:29:18.073Z,5.90
2017-12-05T18:31:47.131Z,5.90
2017-12-05T18:34:15.370Z,5.90
2017-12-05T18:36:45.248Z,5.90
2017-12-05T18:39:13.504Z,5.90
2017-12-05T18:41:41.753Z,5.80
2017-12-05T18:44:10.170Z,5.80
2017-12-05T18:46:38.416Z,5.70
2017-12-05T18:49:06.665Z,5.70
2017-12-05T18:51:35.801Z,5.70
2017-12-05T18:54:04.055Z,5.70
2017-12-05T18:56:32.391Z,5.60
2017-12-05T18:59:00.835Z,5.60
2017-12-05T19:01:29.077Z,5.60
2017-12-05T19:03:58.091Z,5.60
2017-12-05T19:06:26.498Z,5.60
2017-12-05T19:08:54.751Z,5.60
2017-12-05T19:11:23.025Z,5.60
2017-12-05T19:13:51.344Z,5.60
2017-12-05T19:16:19.591Z,5.60
2017-12-05T19:18:47.851Z,5.60
2017-12-05T19:21:17.052Z,5.60
2017-12-05T19:23:45.320Z,5.70
2017-12-05T19:26:13.596Z,5.60
2017-12-05T19:28:42.100Z,5.70
2017-12-05T19:31:10.385Z,5.70
2017-12-05T19:33:38.665Z,5.60
2017-12-05T19:36:07.004Z,5.60
2017-12-05T19:38:35.235Z,5.60
2017-12-05T19:41:03.491Z,5.70
2017-12-05T19:43:31.823Z,5.70
2017-12-05T19:46:00.136Z,5.70
2017-12-05T19:48:28.428Z,5.70
2017-12-05T19:50:56.829Z,5.70
2017-12-05T19:53:25.105Z,5.70
2017-12-05T19:55:54.118Z,5.60
2017-12-05T19:58:22.497Z,5.60
2017-12-05T20:00:50.877Z,5.50
2017-12-05T20:03:19.162Z,5.50
2017-12-05T20:05:47.513Z,5.60
2017-12-05T20:08:16.596Z,5.60
2017-12-05T20:10:44.886Z,5.50
2017-12-05T20:13:13.321Z,5.60
2017-12-05T20:15:41.688Z,5.60
2017-12-05T20:18:09.961Z,5.60
2017-12-05T20:20:38.329Z,5.60
2017-12-05T20:23:07.443Z,5.60
2017-12-05T20:25:35.754Z,5.60
2017-12-05T20:28:04.230Z,5.60
2017-12-05T20:30:33.656Z,5.60
2017-12-05T20:33:02.964Z,5.60
2017-12-05T20:35:31.239Z,5.60
2017-12-05T20:37:59.602Z,5.60
2017-12-05T20:40:28.705Z,5.60
2017-12-05T20:42:57.746Z,5.60
2017-12-05T20:45:26.333Z,5.60
2017-12-05T20:47:54.651Z,5.70
2017-12-05T20:50:23.677Z,5.60
2017-12-05T20:52:51.934Z,5.60
2017-12-05T20:55:20.411Z,5.70
2017-12-05T20:57:50.045Z,5.60
2017-12-05T21:00:18.753Z,5.60
2017-12-05T21:02:47.004Z,5.60
2017-12-05T21:05:16.164Z,5.60
2017-12-05T21:07:45.228Z,5.60
2017-12-05T21:10:13.488Z,5.60
2017-12-05T21:12:41.880Z,5.60
2017-12-05T21:15:10.198Z,5.60
2017-12-05T21:17:39.208Z,5.70
2017-12-05T21:20:07.507Z,5.60
2017-12-05T21:22:35.982Z,5.70
2017-12-05T21:25:04.313Z,5.70
2017-12-05T21:27:33.399Z,5.70
2017-12-05T21:30:01.875Z,5.70
2017-12-05T21:32:30.127Z,5.80
2017-12-05T21:34:58.494Z,5.80
2017-12-05T21:37:26.844Z,5.80
2017-12-05T21:39:55.237Z,5.80
2017-12-05T21:42:23.477Z,5.80
2017-12-05T21:44:52.635Z,5.90
2017-12-05T21:47:20.960Z,5.90
2017-12-05T21:49:49.245Z,5.90
2017-12-05T21:52:17.661Z,5.90
2017-12-05T21:54:45.907Z,6.00
2017-12-05T21:57:14.152Z,5.90
2017-12-05T21:59:43.287Z,5.90
2017-12-05T22:02:11.619Z,5.90
2017-12-05T22:04:40.647Z,5.90
2017-12-05T22:07:08.982Z,5.90
2017-12-05T22:09:38.635Z,5.90
2017-12-05T22:12:06.924Z,5.90
2017-12-05T22:14:35.991Z,6.00
2017-12-05T22:17:04.273Z,5.90
2017-12-05T22:19:32.537Z,6.00
2017-12-05T22:22:00.857Z,5.90
2017-12-05T22:24:29.177Z,6.00
2017-12-05T22:26:58.364Z,6.00
2017-12-05T22:29:26.606Z,6.00
2017-12-05T22:31:54.887Z,6.00
2017-12-05T22:34:23.285Z,6.00
2017-12-05T22:36:51.517Z,6.00
2017-12-05T22:39:19.760Z,6.00
2017-12-05T22:41:48.816Z,6.00
2017-12-05T22:44:17.139Z,6.10
2017-12-05T22:46:46.162Z,6.10
2017-12-05T22:49:14.459Z,6.10
2017-12-05T22:51:42.719Z,6.10
2017-12-05T22:54:10.976Z,6.00
2017-12-05T22:56:39.283Z,6.10
2017-12-05T22:59:07.549Z,6.10
2017-12-05T23:01:51.821Z,6.10
2017-12-05T23:04:31.759Z,6.10
2017-12-05T23:07:00.194Z,6.10
2017-12-05T23:09:28.494Z,6.10
2017-12-05T23:11:56.756Z,6.10
2017-12-05T23:14:25.040Z,6.10
2017-12-05T23:16:53.300Z,6.10
2017-12-05T23:19:21.650Z,6.10
2017-12-05T23:21:49.875Z,6.10
2017-12-05T23:24:18.112Z,6.10
2017-12-05T23:26:47.203Z,6.10
2017-12-05T23:29:15.482Z,6.10
2017-12-05T23:31:44.521Z,6.10
2017-12-05T23:34:12.849Z,6.10
2017-12-05T23:36:41.095Z,6.10
2017-12-05T23:39:09.470Z,6.10
2017-12-05T23:41:37.818Z,6.10
2017-12-05T23:44:06.053Z,6.10
2017-12-05T23:46:35.066Z,6.10
2017-12-05T23:49:03.362Z,6.00
2017-12-05T23:51:31.674Z,6.00
2017-12-05T23:53:59.978Z,6.10
2017-12-05T23:56:29.007Z,6.10
2017-12-05T23:58:57.344Z,6.00
